createdAt,value
2022-08-26T00:01:01.913Z,4.20
2022-08-26T00:02:03.781Z,4.13
2022-08-26T00:03:05.712Z,4.60
2022-08-26T00:04:10.136Z,4.33
2022-08-26T00:05:11.858Z,4.00
2022-08-26T00:06:13.819Z,4.80
2022-08-26T00:07:15.418Z,4.17
2022-08-26T00:08:18.646Z,4.60
2022-08-26T00:09:20.887Z,5.17
2022-08-26T00:10:22.952Z,4.83
2022-08-26T00:11:28.017Z,4.20
2022-08-26T00:12:36.021Z,4.93
2022-08-26T00:13:39.921Z,4.80
2022-08-26T00:14:48.487Z,4.90
2022-08-26T00:15:51.208Z,4.43
2022-08-26T00:16:52.783Z,4.50
2022-08-26T00:17:56.878Z,4.70
2022-08-26T00:18:58.572Z,4.33
2022-08-26T00:20:00.325Z,4.97
2022-08-26T00:21:06.226Z,4.90
2022-08-26T00:22:08.301Z,4.50
2022-08-26T00:23:09.971Z,5.00
2022-08-26T00:24:11.973Z,5.40
2022-08-26T00:25:14.918Z,4.43
2022-08-26T00:26:18.734Z,4.30
2022-08-26T00:27:22.694Z,5.10
2022-08-26T00:28:24.765Z,4.60
2022-08-26T00:29:26.522Z,4.27
2022-08-26T00:30:30.975Z,5.20
2022-08-26T00:31:33.170Z,4.83
2022-08-26T00:32:35.712Z,4.33
2022-08-26T00:33:39.932Z,4.93
2022-08-26T00:34:41.764Z,4.87
2022-08-26T00:35:45.244Z,4.80
2022-08-26T00:36:47.828Z,4.53
2022-08-26T00:37:54.217Z,4.70
2022-08-26T00:38:56.388Z,4.63
2022-08-26T00:39:58.395Z,4.87
2022-08-26T00:41:02.649Z,4.17
2022-08-26T00:42:04.564Z,4.20
2022-08-26T00:43:08.529Z,4.67
2022-08-26T00:44:11.369Z,4.23
2022-08-26T00:45:14.054Z,5.17
2022-08-26T00:46:26.866Z,4.67
2022-08-26T00:47:35.302Z,5.03
2022-08-26T00:48:42.420Z,4.90
2022-08-26T00:49:47.397Z,4.90
2022-08-26T00:51:01.938Z,4.83
2022-08-26T00:52:07.037Z,4.50
2022-08-26T00:53:24.122Z,5.30
2022-08-26T00:54:32.691Z,4.43
2022-08-26T00:55:39.120Z,5.03
2022-08-26T00:56:49.775Z,5.17
2022-08-26T00:57:53.481Z,4.20
2022-08-26T00:58:58.175Z,4.57
2022-08-26T01:00:03.419Z,4.20
2022-08-26T01:01:05.777Z,4.90
2022-08-26T01:02:07.347Z,5.27
2022-08-26T01:03:25.218Z,5.27
2022-08-26T01:04:27.440Z,5.27
2022-08-26T01:05:30.161Z,4.90
2022-08-26T01:06:32.353Z,4.87
2022-08-26T01:07:34.911Z,5.20
2022-08-26T01:08:36.702Z,4.70
2022-08-26T01:09:38.680Z,4.97
2022-08-26T01:10:42.127Z,4.47
2022-08-26T01:11:47.458Z,4.73
2022-08-26T01:12:55.687Z,4.90
2022-08-26T01:14:02.065Z,4.67
2022-08-26T01:15:05.893Z,5.33
2022-08-26T01:16:12.840Z,5.00
2022-08-26T01:17:15.219Z,4.90
2022-08-26T01:18:18.357Z,5.20
2022-08-26T01:19:32.994Z,4.97
2022-08-26T01:21:16.329Z,4.50
2022-08-26T01:22:28.131Z,4.80
2022-08-26T01:23:40.946Z,5.03
2022-08-26T01:24:48.101Z,4.57
2022-08-26T01:25:56.520Z,5.30
2022-08-26T01:27:01.654Z,5.17
2022-08-26T01:28:08.195Z,4.27
2022-08-26T01:29:15.032Z,5.10
2022-08-26T01:30:17.030Z,5.10
2022-08-26T01:31:22.423Z,4.97
2022-08-26T01:32:25.707Z,5.30
2022-08-26T01:33:42.173Z,4.60
2022-08-26T01:34:47.270Z,4.47
2022-08-26T01:35:49.375Z,4.93
2022-08-26T01:36:57.734Z,5.20
2022-08-26T01:38:00.643Z,4.70
2022-08-26T01:39:05.886Z,4.70
2022-08-26T01:40:14.025Z,4.93
2022-08-26T01:41:19.866Z,4.90
2022-08-26T01:42:29.384Z,4.93
2022-08-26T01:43:32.849Z,4.60
2022-08-26T01:44:39.919Z,5.20
2022-08-26T01:45:42.800Z,4.20
2022-08-26T01:46:46.703Z,4.87
2022-08-26T01:47:56.748Z,5.13
2022-08-26T01:49:02.675Z,4.77
2022-08-26T01:50:10.499Z,4.10
2022-08-26T01:51:17.420Z,4.50
2022-08-26T01:52:24.280Z,4.50
2022-08-26T01:53:30.335Z,4.53
2022-08-26T01:54:32.536Z,4.80
2022-08-26T01:55:37.061Z,4.60
2022-08-26T01:56:39.306Z,4.90
2022-08-26T01:57:44.242Z,4.33
2022-08-26T01:58:51.435Z,5.07
2022-08-26T01:59:57.076Z,4.60
2022-08-26T02:00:59.055Z,4.80
2022-08-26T02:02:01.571Z,4.40
2022-08-26T02:03:17.567Z,5.17
2022-08-26T02:04:26.592Z,4.43
2022-08-26T02:05:28.322Z,4.73
2022-08-26T02:06:31.003Z,4.40
2022-08-26T02:07:33.321Z,4.77
2022-08-26T02:08:41.128Z,5.87
2022-08-26T02:09:43.349Z,5.10
2022-08-26T02:10:45.088Z,4.73
2022-08-26T02:11:47.450Z,5.80
2022-08-26T02:12:50.165Z,5.43
2022-08-26T02:13:59.675Z,5.60
2022-08-26T02:15:05.748Z,4.63
2022-08-26T02:16:08.969Z,4.63
2022-08-26T02:17:11.125Z,4.80
2022-08-26T02:18:14.183Z,4.03
2022-08-26T02:19:23.495Z,4.80
2022-08-26T02:20:26.568Z,5.40
2022-08-26T02:21:29.932Z,4.70
2022-08-26T02:22:33.048Z,4.83
2022-08-26T02:23:34.696Z,4.13
2022-08-26T02:25:28.552Z,5.00
2022-08-26T02:26:30.140Z,4.57
2022-08-26T02:27:34.069Z,5.47
2022-08-26T02:29:01.990Z,4.90
2022-08-26T02:30:21.262Z,5.50
2022-08-26T02:31:23.787Z,4.87
2022-08-26T02:32:25.882Z,5.07
2022-08-26T02:33:29.637Z,5.60
2022-08-26T02:34:33.231Z,5.03
2022-08-26T02:35:36.450Z,5.17
2022-08-26T02:36:38.584Z,4.93
2022-08-26T02:37:41.906Z,4.60
2022-08-26T02:38:43.564Z,5.27
2022-08-26T02:39:48.073Z,5.70
2022-08-26T02:40:49.815Z,4.80
2022-08-26T02:41:52.684Z,5.30
2022-08-26T02:42:55.959Z,5.17
2022-08-26T02:43:59.088Z,5.40
2022-08-26T02:45:00.777Z,5.33
2022-08-26T02:46:02.688Z,5.10
2022-08-26T02:47:05.220Z,5.40
2022-08-26T02:48:18.802Z,5.13
2022-08-26T02:49:21.807Z,5.40
2022-08-26T02:50:24.171Z,6.03
2022-08-26T02:51:27.262Z,5.07
2022-08-26T02:52:29.054Z,5.07
2022-08-26T02:53:32.054Z,5.30
2022-08-26T02:54:37.228Z,5.63
2022-08-26T02:55:40.369Z,5.03
2022-08-26T02:56:45.513Z,5.70
2022-08-26T02:57:47.186Z,5.10
2022-08-26T02:58:48.832Z,4.83
2022-08-26T02:59:53.590Z,5.77
2022-08-26T03:00:55.426Z,4.93
2022-08-26T03:01:57.304Z,5.90
2022-08-26T03:02:59.426Z,5.10
2022-08-26T03:04:03.251Z,5.60
2022-08-26T03:05:05.412Z,4.40
2022-08-26T03:06:07.074Z,4.67
2022-08-26T03:07:10.194Z,5.13
2022-08-26T03:08:11.878Z,5.80
2022-08-26T03:09:18.507Z,5.60
2022-08-26T03:10:21.120Z,6.27
2022-08-26T03:11:23.631Z,5.40
2022-08-26T03:12:26.251Z,4.63
2022-08-26T03:13:27.896Z,5.17
2022-08-26T03:14:29.800Z,5.50
2022-08-26T03:15:32.217Z,5.43
2022-08-26T03:16:35.828Z,5.97
2022-08-26T03:17:38.108Z,5.23
2022-08-26T03:18:41.723Z,5.50
2022-08-26T03:19:43.359Z,5.53
2022-08-26T03:20:46.448Z,5.53
2022-08-26T03:21:48.426Z,5.10
2022-08-26T03:22:53.236Z,5.73
2022-08-26T03:23:58.899Z,5.93
2022-08-26T03:25:03.729Z,5.60
2022-08-26T03:26:06.536Z,5.03
2022-08-26T03:27:08.342Z,5.50
2022-08-26T03:28:10.076Z,5.33
2022-08-26T03:29:30.304Z,5.53
2022-08-26T03:30:45.390Z,5.20
2022-08-26T03:31:47.461Z,5.73
2022-08-26T03:32:49.340Z,4.93
2022-08-26T03:33:51.513Z,5.80
2022-08-26T03:34:53.955Z,5.70
2022-08-26T03:35:55.696Z,6.00
2022-08-26T03:36:58.994Z,5.20
2022-08-26T03:38:01.960Z,6.30
2022-08-26T03:39:03.641Z,5.20
2022-08-26T03:40:08.985Z,6.03
2022-08-26T03:41:13.562Z,5.50
2022-08-26T03:42:15.857Z,6.33
2022-08-26T03:43:17.950Z,6.10
2022-08-26T03:44:19.704Z,5.73
2022-08-26T03:45:21.877Z,5.23
2022-08-26T03:46:23.523Z,5.57
2022-08-26T03:47:28.446Z,5.47
2022-08-26T03:48:29.976Z,6.00
2022-08-26T03:49:32.014Z,5.30
2022-08-26T03:50:35.802Z,6.10
2022-08-26T03:51:38.834Z,5.93
2022-08-26T03:52:44.101Z,5.70
2022-08-26T03:53:47.644Z,5.90
2022-08-26T03:54:50.102Z,6.00
2022-08-26T03:55:52.077Z,6.10
2022-08-26T03:56:54.049Z,5.47
2022-08-26T03:57:55.810Z,5.17
2022-08-26T03:58:57.448Z,6.00
2022-08-26T04:00:00.207Z,6.40
2022-08-26T04:01:01.817Z,6.40
2022-08-26T04:02:03.740Z,5.67
2022-08-26T04:03:33.115Z,6.30
2022-08-26T04:04:35.399Z,6.10
2022-08-26T04:05:37.928Z,5.43
2022-08-26T04:06:45.014Z,5.70
2022-08-26T04:07:47.743Z,5.33
2022-08-26T04:08:50.698Z,5.47
2022-08-26T04:09:56.994Z,5.63
2022-08-26T04:10:59.059Z,5.80
2022-08-26T04:12:00.792Z,5.40
2022-08-26T04:13:02.466Z,5.90
2022-08-26T04:14:07.221Z,5.07
2022-08-26T04:15:12.929Z,5.70
2022-08-26T04:16:17.398Z,5.90
2022-08-26T04:17:19.872Z,5.57
2022-08-26T04:18:31.428Z,6.00
2022-08-26T04:19:38.606Z,5.53
2022-08-26T04:20:40.134Z,5.87
2022-08-26T04:21:41.954Z,6.50
2022-08-26T04:22:45.249Z,6.80
2022-08-26T04:23:47.542Z,6.03
2022-08-26T04:24:49.535Z,6.47
2022-08-26T04:25:51.540Z,6.70
2022-08-26T04:26:54.011Z,6.40
2022-08-26T04:27:55.711Z,6.40
2022-08-26T04:28:57.246Z,6.70
2022-08-26T04:30:01.338Z,6.23
2022-08-26T04:31:03.254Z,6.53
2022-08-26T04:32:04.900Z,6.63
2022-08-26T04:33:13.025Z,7.03
2022-08-26T04:34:16.232Z,6.80
2022-08-26T04:35:19.439Z,5.80
2022-08-26T04:36:24.418Z,6.10
2022-08-26T04:37:26.213Z,5.60
2022-08-26T04:38:29.199Z,6.50
2022-08-26T04:39:31.261Z,6.47
2022-08-26T04:40:33.468Z,5.80
2022-08-26T04:41:36.728Z,6.80
2022-08-26T04:42:38.371Z,6.50
2022-08-26T04:43:40.047Z,6.40
2022-08-26T04:44:41.647Z,5.80
2022-08-26T04:45:43.970Z,6.47
2022-08-26T04:46:45.819Z,6.00
2022-08-26T04:47:47.525Z,6.50
2022-08-26T04:48:53.324Z,5.77
2022-08-26T04:49:55.946Z,6.23
2022-08-26T04:51:00.182Z,6.20
2022-08-26T04:52:01.882Z,5.63
2022-08-26T04:53:04.575Z,6.50
2022-08-26T04:54:09.101Z,6.70
2022-08-26T04:55:10.754Z,6.60
2022-08-26T04:56:13.481Z,5.73
2022-08-26T04:57:15.400Z,6.40
2022-08-26T04:58:19.644Z,6.30
2022-08-26T04:59:21.298Z,6.33
2022-08-26T05:00:23.602Z,5.57
2022-08-26T05:01:29.866Z,5.80
2022-08-26T05:02:31.548Z,6.20
2022-08-26T05:03:36.169Z,6.40
2022-08-26T05:04:37.844Z,6.67
2022-08-26T05:05:44.153Z,6.30
2022-08-26T05:06:46.697Z,7.00
2022-08-26T05:07:48.263Z,6.63
2022-08-26T05:08:51.932Z,7.80
2022-08-26T05:09:54.653Z,7.07
2022-08-26T05:10:56.632Z,6.97
2022-08-26T05:11:58.327Z,7.00
2022-08-26T05:13:00.287Z,8.60
2022-08-26T05:14:02.520Z,6.90
2022-08-26T05:15:04.594Z,6.80
2022-08-26T05:16:11.635Z,7.00
2022-08-26T05:17:14.965Z,6.53
2022-08-26T05:18:20.709Z,6.40
2022-08-26T05:19:23.626Z,6.37
2022-08-26T05:20:26.061Z,6.27
2022-08-26T05:21:29.057Z,6.90
2022-08-26T05:22:30.757Z,6.00
2022-08-26T05:23:35.090Z,7.17
2022-08-26T05:24:37.241Z,6.70
2022-08-26T05:25:42.028Z,6.20
2022-08-26T05:26:44.644Z,6.30
2022-08-26T05:27:46.908Z,6.17
2022-08-26T05:28:49.203Z,6.77
2022-08-26T05:29:54.417Z,5.97
2022-08-26T05:30:57.166Z,6.13
2022-08-26T05:31:58.843Z,6.43
2022-08-26T05:33:01.552Z,7.17
2022-08-26T05:34:04.639Z,5.60
2022-08-26T05:35:08.863Z,6.00
2022-08-26T05:36:15.110Z,6.20
2022-08-26T05:37:16.965Z,6.17
2022-08-26T05:38:21.063Z,6.43
2022-08-26T05:39:23.433Z,5.60
2022-08-26T05:40:25.449Z,6.73
2022-08-26T05:41:36.489Z,6.70
2022-08-26T05:42:40.276Z,6.30
2022-08-26T05:43:42.118Z,6.30
2022-08-26T05:44:55.481Z,6.00
2022-08-26T05:46:06.984Z,6.27
2022-08-26T05:47:08.618Z,5.83
2022-08-26T05:48:10.428Z,6.70
2022-08-26T05:49:14.756Z,5.97
2022-08-26T05:50:21.871Z,6.33
2022-08-26T05:51:26.301Z,6.27
2022-08-26T05:52:27.967Z,6.77
2022-08-26T05:53:29.650Z,5.60
2022-08-26T05:54:32.467Z,5.80
2022-08-26T05:55:34.978Z,6.13
2022-08-26T05:56:37.196Z,5.90
2022-08-26T05:57:42.866Z,5.90
2022-08-26T05:58:44.659Z,6.13
2022-08-26T05:59:47.928Z,6.00
2022-08-26T06:01:02.324Z,6.10
2022-08-26T06:02:05.889Z,5.93
2022-08-26T06:03:08.344Z,6.57
2022-08-26T06:04:10.919Z,6.20
2022-08-26T06:05:12.716Z,5.60
2022-08-26T06:06:27.285Z,6.43
2022-08-26T06:07:49.634Z,6.10
2022-08-26T06:08:52.594Z,5.80
2022-08-26T06:10:01.628Z,5.67
2022-08-26T06:11:18.658Z,5.87
2022-08-26T06:12:23.248Z,5.60
2022-08-26T06:13:26.842Z,6.40
2022-08-26T06:14:28.602Z,5.83
2022-08-26T06:15:30.480Z,5.90
2022-08-26T06:16:35.054Z,5.60
2022-08-26T06:17:36.826Z,6.43
2022-08-26T06:18:40.899Z,6.20
2022-08-26T06:19:42.488Z,4.73
2022-08-26T06:20:54.614Z,5.40
2022-08-26T06:22:22.304Z,5.83
2022-08-26T06:23:46.339Z,6.47
2022-08-26T06:25:06.516Z,6.80
2022-08-26T06:26:11.063Z,5.90
2022-08-26T06:27:14.008Z,6.07
2022-08-26T06:28:17.359Z,5.67
2022-08-26T06:29:24.321Z,5.40
2022-08-26T06:30:26.573Z,4.93
2022-08-26T06:31:28.769Z,5.47
2022-08-26T06:32:30.799Z,5.57
2022-08-26T06:33:32.528Z,4.93
2022-08-26T06:34:36.839Z,5.37
2022-08-26T06:35:40.501Z,5.40
2022-08-26T06:36:44.804Z,4.83
2022-08-26T06:37:48.255Z,6.10
2022-08-26T06:38:51.146Z,5.90
2022-08-26T06:39:52.780Z,5.20
2022-08-26T06:40:54.967Z,5.13
2022-08-26T06:41:56.902Z,5.80
2022-08-26T06:42:58.559Z,5.07
2022-08-26T06:44:01.356Z,5.23
2022-08-26T06:45:03.641Z,5.30
2022-08-26T06:46:12.398Z,5.40
2022-08-26T06:47:14.208Z,5.13
2022-08-26T06:48:20.249Z,5.07
2022-08-26T06:49:25.815Z,4.80
2022-08-26T06:50:29.498Z,4.60
2022-08-26T06:51:34.579Z,4.80
2022-08-26T06:52:36.364Z,5.20
2022-08-26T06:53:38.948Z,5.13
2022-08-26T06:54:43.217Z,4.93
2022-08-26T06:55:46.845Z,5.93
2022-08-26T06:56:53.680Z,5.47
2022-08-26T06:57:56.574Z,6.10
2022-08-26T06:58:58.163Z,6.50
2022-08-26T06:59:59.757Z,5.40
2022-08-26T07:01:09.079Z,4.70
2022-08-26T07:02:13.773Z,4.40
2022-08-26T07:03:15.587Z,4.23
2022-08-26T07:04:20.291Z,4.60
2022-08-26T07:05:25.613Z,4.90
2022-08-26T07:06:28.344Z,4.80
2022-08-26T07:07:29.991Z,4.30
2022-08-26T07:08:31.663Z,4.37
2022-08-26T07:09:35.319Z,5.00
2022-08-26T07:10:38.703Z,4.97
2022-08-26T07:11:40.648Z,5.00
2022-08-26T07:12:43.256Z,4.80
2022-08-26T07:13:50.505Z,4.90
2022-08-26T07:14:53.513Z,4.83
2022-08-26T07:15:58.018Z,5.10
2022-08-26T07:17:09.209Z,5.40
2022-08-26T07:18:13.895Z,5.20
2022-08-26T07:19:17.503Z,5.30
2022-08-26T07:20:30.357Z,4.73
2022-08-26T07:21:32.015Z,6.30
2022-08-26T07:22:34.449Z,5.07
2022-08-26T07:23:37.034Z,5.93
2022-08-26T07:24:42.535Z,5.00
2022-08-26T07:25:44.477Z,4.80
2022-08-26T07:26:46.018Z,5.40
2022-08-26T07:27:54.253Z,5.80
2022-08-26T07:28:57.966Z,6.07
2022-08-26T07:30:02.045Z,6.10
2022-08-26T07:31:06.161Z,6.20
2022-08-26T07:32:13.868Z,5.60
2022-08-26T07:33:16.765Z,5.20
2022-08-26T07:34:18.687Z,4.90
2022-08-26T07:35:20.357Z,4.80
2022-08-26T07:36:23.228Z,4.70
2022-08-26T07:37:24.953Z,4.50
2022-08-26T07:38:26.832Z,5.07
2022-08-26T07:39:31.879Z,4.10
2022-08-26T07:40:34.478Z,4.30
2022-08-26T07:41:36.638Z,4.53
2022-08-26T07:42:38.246Z,4.67
2022-08-26T07:43:40.410Z,5.13
2022-08-26T07:44:45.262Z,4.00
2022-08-26T07:45:47.271Z,4.87
2022-08-26T07:46:53.211Z,4.40
2022-08-26T07:47:55.845Z,4.30
2022-08-26T07:48:58.541Z,4.20
2022-08-26T07:50:00.202Z,4.13
2022-08-26T07:51:02.396Z,3.85
2022-08-26T07:52:04.943Z,4.30
2022-08-26T07:53:06.666Z,3.70
2022-08-26T07:54:12.253Z,3.90
2022-08-26T07:55:15.195Z,4.20
2022-08-26T07:56:17.036Z,4.97
2022-08-26T07:57:19.142Z,4.03
2022-08-26T07:58:21.104Z,4.50
2022-08-26T07:59:23.336Z,4.53
2022-08-26T08:00:25.589Z,4.00
2022-08-26T08:01:29.642Z,4.70
2022-08-26T08:02:32.907Z,4.03
2022-08-26T08:03:36.463Z,4.20
2022-08-26T08:04:38.107Z,4.50
2022-08-26T08:05:41.274Z,3.70
2022-08-26T08:06:44.674Z,4.10
2022-08-26T08:07:46.549Z,5.10
2022-08-26T08:08:48.275Z,4.23
2022-08-26T08:09:52.549Z,3.88
2022-08-26T08:10:54.291Z,3.90
2022-08-26T08:11:55.900Z,4.20
2022-08-26T08:12:58.380Z,3.60
2022-08-26T08:14:02.841Z,4.00
2022-08-26T08:15:13.900Z,4.63
2022-08-26T08:16:15.710Z,4.30
2022-08-26T08:17:17.314Z,4.53
2022-08-26T08:18:20.952Z,4.10
2022-08-26T08:19:23.948Z,4.13
2022-08-26T08:20:35.081Z,4.50
2022-08-26T08:21:38.615Z,4.70
2022-08-26T08:22:40.896Z,4.90
2022-08-26T08:23:42.451Z,5.17
2022-08-26T08:24:44.012Z,4.50
2022-08-26T08:25:45.673Z,4.70
2022-08-26T08:26:47.601Z,4.40
2022-08-26T08:27:49.215Z,3.73
2022-08-26T08:28:54.980Z,4.10
2022-08-26T08:29:56.812Z,4.50
2022-08-26T08:30:58.535Z,4.00
2022-08-26T08:32:01.141Z,4.30
2022-08-26T08:33:04.549Z,4.00
2022-08-26T08:34:07.323Z,3.87
2022-08-26T08:35:11.723Z,4.80
2022-08-26T08:36:18.428Z,5.03
2022-08-26T08:37:23.442Z,4.60
2022-08-26T08:38:25.919Z,4.30
2022-08-26T08:39:27.986Z,4.37
2022-08-26T08:40:29.559Z,4.97
2022-08-26T08:41:43.575Z,4.60
2022-08-26T08:42:48.414Z,4.30
2022-08-26T08:43:51.808Z,4.93
2022-08-26T08:44:57.320Z,5.13
2022-08-26T08:46:05.854Z,4.40
2022-08-26T08:47:30.603Z,4.70
2022-08-26T08:48:37.882Z,5.60
2022-08-26T08:49:40.270Z,4.97
2022-08-26T08:50:52.167Z,5.50
2022-08-26T08:52:00.329Z,5.47
2022-08-26T08:53:11.156Z,5.60
2022-08-26T08:54:13.019Z,5.33
2022-08-26T08:55:18.201Z,4.97
2022-08-26T08:56:32.310Z,5.97
2022-08-26T08:57:53.872Z,5.10
2022-08-26T08:59:25.276Z,4.70
2022-08-26T09:00:30.770Z,4.63
2022-08-26T09:01:52.567Z,4.50
2022-08-26T09:03:10.846Z,4.47
2022-08-26T09:04:28.929Z,4.90
2022-08-26T09:05:40.234Z,5.00
2022-08-26T09:06:42.863Z,4.90
2022-08-26T09:08:04.937Z,4.43
2022-08-26T09:09:14.195Z,3.87
2022-08-26T09:10:36.428Z,4.43
2022-08-26T09:11:38.776Z,4.70
2022-08-26T09:12:40.405Z,5.18
2022-08-26T09:13:49.223Z,5.10
2022-08-26T09:14:51.985Z,4.63
2022-08-26T09:16:07.420Z,4.40
2022-08-26T09:17:28.488Z,4.30
2022-08-26T09:18:34.141Z,4.30
2022-08-26T09:19:49.480Z,4.40
2022-08-26T09:21:11.612Z,4.10
2022-08-26T09:22:29.039Z,4.03
2022-08-26T09:23:34.024Z,4.65
2022-08-26T09:24:41.622Z,4.07
2022-08-26T09:25:49.079Z,4.38
2022-08-26T09:26:52.696Z,4.72
2022-08-26T09:27:54.542Z,5.07
2022-08-26T09:29:02.883Z,4.40
2022-08-26T09:30:06.397Z,4.50
2022-08-26T09:31:21.547Z,4.88
2022-08-26T09:32:26.506Z,3.83
2022-08-26T09:33:31.362Z,4.20
2022-08-26T09:34:33.188Z,4.45
2022-08-26T09:35:48.830Z,4.18
2022-08-26T09:36:51.720Z,4.20
2022-08-26T09:37:53.415Z,4.22
2022-08-26T09:38:56.181Z,3.78
2022-08-26T09:40:13.612Z,3.72
2022-08-26T09:41:35.497Z,3.75
2022-08-26T09:42:37.100Z,3.85
2022-08-26T09:43:38.893Z,3.42
2022-08-26T09:44:58.316Z,3.93
2022-08-26T09:46:19.401Z,3.55
2022-08-26T09:47:26.497Z,3.80
2022-08-26T09:48:36.612Z,4.00
2022-08-26T09:49:40.355Z,5.03
2022-08-26T09:50:56.098Z,4.90
2022-08-26T09:52:15.556Z,4.60
2022-08-26T09:53:33.248Z,4.57
2022-08-26T09:54:35.680Z,4.53
2022-08-26T09:55:39.620Z,5.07
2022-08-26T09:56:41.249Z,4.13
2022-08-26T09:57:51.200Z,4.70
2022-08-26T09:58:54.889Z,4.47
2022-08-26T09:59:56.535Z,4.90
2022-08-26T10:01:01.511Z,4.23
2022-08-26T10:02:34.240Z,5.27
2022-08-26T10:03:38.986Z,5.43
2022-08-26T10:04:40.762Z,5.10
2022-08-26T10:05:44.175Z,5.57
2022-08-26T10:07:01.126Z,4.80
2022-08-26T10:08:19.939Z,5.83
2022-08-26T10:09:26.369Z,5.20
2022-08-26T10:10:38.687Z,6.20
2022-08-26T10:11:50.845Z,5.80
2022-08-26T10:13:07.839Z,4.90
2022-08-26T10:14:31.787Z,5.33
2022-08-26T10:15:50.635Z,5.20
2022-08-26T10:17:03.365Z,4.83
2022-08-26T10:18:20.265Z,5.83
2022-08-26T10:19:29.260Z,6.00
2022-08-26T10:20:57.048Z,5.13
2022-08-26T10:22:05.887Z,5.57
2022-08-26T10:23:09.441Z,6.00
2022-08-26T10:24:20.820Z,5.90
2022-08-26T10:25:29.040Z,6.03
2022-08-26T10:26:37.744Z,5.40
2022-08-26T10:27:52.766Z,5.33
2022-08-26T10:29:10.204Z,5.90
2022-08-26T10:30:24.472Z,5.37
2022-08-26T10:31:27.499Z,5.60
2022-08-26T10:32:41.809Z,5.70
2022-08-26T10:33:43.501Z,5.70
2022-08-26T10:34:45.604Z,5.83
2022-08-26T10:36:07.654Z,5.30
2022-08-26T10:37:21.448Z,6.20
2022-08-26T10:38:32.444Z,4.97
2022-08-26T10:39:53.061Z,5.77
2022-08-26T10:41:02.851Z,5.17
2022-08-26T10:42:28.898Z,6.27
2022-08-26T10:43:45.044Z,5.20
2022-08-26T10:44:50.222Z,4.53
2022-08-26T10:46:03.155Z,4.90
2022-08-26T10:47:59.218Z,4.73
2022-08-26T10:49:10.602Z,5.10
2022-08-26T10:50:12.811Z,5.00
2022-08-26T10:51:25.673Z,4.43
2022-08-26T10:52:46.756Z,4.80
2022-08-26T10:54:01.730Z,4.50
2022-08-26T10:55:27.364Z,3.60
2022-08-26T10:57:10.580Z,5.20
2022-08-26T10:58:49.492Z,4.70
2022-08-26T11:00:00.951Z,5.83
2022-08-26T11:01:40.845Z,4.70
2022-08-26T11:02:48.253Z,4.13
2022-08-26T11:04:05.283Z,4.60
2022-08-26T11:05:16.812Z,4.17
2022-08-26T11:06:18.745Z,4.80
2022-08-26T11:07:33.534Z,4.60
2022-08-26T11:08:45.035Z,4.73
2022-08-26T11:09:47.802Z,5.00
2022-08-26T11:11:00.410Z,5.00
2022-08-26T11:12:09.922Z,6.40
2022-08-26T11:13:12.117Z,4.70
2022-08-26T11:14:29.299Z,4.23
2022-08-26T11:15:31.756Z,5.00
2022-08-26T11:16:43.555Z,4.60
2022-08-26T11:17:45.829Z,4.30
2022-08-26T11:18:48.726Z,4.13
2022-08-26T11:20:01.558Z,4.37
2022-08-26T11:21:44.035Z,4.80
2022-08-26T11:22:47.942Z,4.03
2022-08-26T11:23:50.454Z,4.57
2022-08-26T11:24:52.438Z,3.83
2022-08-26T11:26:09.514Z,3.33
2022-08-26T11:27:35.145Z,4.07
2022-08-26T11:28:45.793Z,4.13
2022-08-26T11:30:03.977Z,3.65
2022-08-26T11:31:10.678Z,3.83
2022-08-26T11:32:48.777Z,4.03
2022-08-26T11:33:59.481Z,4.20
2022-08-26T11:35:05.987Z,4.13
2022-08-26T11:36:12.495Z,4.70
2022-08-26T11:37:17.902Z,4.83
2022-08-26T11:38:29.489Z,4.80
2022-08-26T11:39:54.037Z,4.90
2022-08-26T11:41:21.953Z,4.27
2022-08-26T11:42:36.838Z,5.37
2022-08-26T11:43:40.663Z,4.57
2022-08-26T11:44:49.312Z,5.07
2022-08-26T11:46:00.174Z,5.10
2022-08-26T11:47:03.115Z,4.13
2022-08-26T11:48:38.555Z,5.10
2022-08-26T11:49:41.832Z,4.73
2022-08-26T11:50:54.175Z,5.17
2022-08-26T11:52:20.869Z,4.70
2022-08-26T11:53:23.659Z,4.33
2022-08-26T11:54:30.794Z,5.10
2022-08-26T11:55:43.346Z,4.90
2022-08-26T11:56:48.711Z,5.63
2022-08-26T11:57:55.206Z,4.53
2022-08-26T11:58:59.864Z,5.10
2022-08-26T12:00:02.928Z,4.70
2022-08-26T12:01:09.621Z,4.97
2022-08-26T12:02:16.017Z,5.20
2022-08-26T12:03:23.587Z,5.00
2022-08-26T12:04:30.196Z,5.50
2022-08-26T12:05:42.360Z,5.70
2022-08-26T12:06:51.557Z,5.40
2022-08-26T12:07:55.398Z,4.30
2022-08-26T12:08:59.989Z,5.33
2022-08-26T12:10:05.208Z,4.87
2022-08-26T12:11:12.020Z,5.20
2022-08-26T12:12:17.080Z,4.40
2022-08-26T12:13:26.345Z,5.00
2022-08-26T12:14:28.595Z,5.07
2022-08-26T12:15:32.191Z,4.60
2022-08-26T12:16:40.239Z,5.57
2022-08-26T12:17:43.237Z,5.20
2022-08-26T12:18:45.043Z,4.47
2022-08-26T12:19:47.635Z,5.13
2022-08-26T12:20:53.832Z,4.87
2022-08-26T12:22:07.342Z,4.53
2022-08-26T12:23:09.181Z,4.60
2022-08-26T12:24:17.108Z,5.00
2022-08-26T12:25:23.783Z,4.20
2022-08-26T12:26:34.903Z,4.77
2022-08-26T12:27:45.364Z,4.47
2022-08-26T12:28:59.908Z,4.73
2022-08-26T12:30:12.499Z,4.40
2022-08-26T12:31:34.209Z,4.63
2022-08-26T12:32:57.290Z,4.63
2022-08-26T12:34:02.546Z,3.93
2022-08-26T12:36:08.775Z,5.00
2022-08-26T12:37:13.091Z,4.50
2022-08-26T12:38:15.094Z,4.37
2022-08-26T12:39:30.837Z,4.83
2022-08-26T12:40:35.534Z,4.40
2022-08-26T12:41:43.779Z,4.90
2022-08-26T12:42:45.527Z,4.60
2022-08-26T12:43:47.261Z,4.70
2022-08-26T12:45:06.593Z,4.20
2022-08-26T12:46:24.632Z,4.60
2022-08-26T12:47:44.236Z,4.53
2022-08-26T12:48:49.269Z,5.43
2022-08-26T12:50:01.244Z,4.67
2022-08-26T12:51:03.675Z,4.87
2022-08-26T12:52:09.482Z,4.13
2022-08-26T12:53:11.181Z,4.50
2022-08-26T12:54:15.961Z,3.80
2022-08-26T12:55:31.702Z,4.70
2022-08-26T12:56:39.445Z,4.50
2022-08-26T12:57:41.115Z,4.80
2022-08-26T12:58:43.678Z,4.20
2022-08-26T12:59:45.233Z,3.97
2022-08-26T13:00:51.668Z,4.20
2022-08-26T13:01:54.231Z,3.70
2022-08-26T13:02:57.292Z,3.97
2022-08-26T13:03:59.022Z,3.60
2022-08-26T13:05:01.030Z,4.70
2022-08-26T13:06:15.897Z,4.00
2022-08-26T13:07:22.957Z,3.57
2022-08-26T13:08:27.319Z,4.30
2022-08-26T13:09:30.612Z,4.60
2022-08-26T13:10:41.869Z,4.57
2022-08-26T13:11:44.641Z,4.00
2022-08-26T13:12:46.781Z,4.10
2022-08-26T13:13:53.789Z,3.70
2022-08-26T13:14:56.041Z,4.60
2022-08-26T13:15:57.780Z,4.55
2022-08-26T13:16:59.434Z,3.60
2022-08-26T13:18:01.083Z,4.07
2022-08-26T13:19:10.271Z,3.95
2022-08-26T13:20:12.225Z,4.10
2022-08-26T13:21:20.561Z,4.10
2022-08-26T13:22:24.289Z,4.18
2022-08-26T13:23:25.974Z,3.70
2022-08-26T13:24:40.443Z,3.80
2022-08-26T13:25:42.154Z,3.78
2022-08-26T13:26:46.059Z,4.07
2022-08-26T13:27:47.776Z,4.50
2022-08-26T13:29:01.468Z,4.35
2022-08-26T13:30:04.043Z,4.23
2022-08-26T13:31:06.147Z,4.10
2022-08-26T13:32:09.105Z,3.80
2022-08-26T13:33:12.274Z,4.30
2022-08-26T13:34:19.412Z,3.87
2022-08-26T13:35:20.979Z,3.97
2022-08-26T13:36:22.662Z,3.60
2022-08-26T13:37:34.874Z,4.27
2022-08-26T13:38:37.125Z,3.87
2022-08-26T13:39:39.363Z,3.80
2022-08-26T13:40:44.501Z,3.60
2022-08-26T13:41:46.383Z,4.33
2022-08-26T13:42:49.882Z,4.43
2022-08-26T13:43:52.609Z,5.37
2022-08-26T13:44:57.901Z,4.33
2022-08-26T13:46:00.987Z,5.40
2022-08-26T13:47:02.582Z,4.10
2022-08-26T13:48:06.008Z,4.50
2022-08-26T13:49:08.197Z,4.57
2022-08-26T13:50:09.901Z,4.00
2022-08-26T13:51:12.000Z,4.20
2022-08-26T13:52:13.576Z,4.50
2022-08-26T13:53:17.020Z,4.53
2022-08-26T13:54:18.677Z,4.30
2022-08-26T13:55:20.249Z,4.20
2022-08-26T13:56:22.848Z,4.30
2022-08-26T13:57:24.749Z,4.37
2022-08-26T13:58:27.823Z,4.27
2022-08-26T13:59:29.423Z,4.27
2022-08-26T14:00:33.261Z,4.03
2022-08-26T14:01:35.475Z,3.77
2022-08-26T14:02:37.766Z,4.03
2022-08-26T14:03:39.627Z,4.10
2022-08-26T14:04:41.210Z,4.40
2022-08-26T14:05:42.807Z,4.47
2022-08-26T14:06:44.558Z,4.50
2022-08-26T14:07:46.947Z,4.10
2022-08-26T14:08:49.426Z,3.93
2022-08-26T14:09:51.057Z,3.60
2022-08-26T14:10:52.743Z,3.93
2022-08-26T14:11:55.219Z,3.13
2022-08-26T14:12:57.230Z,4.63
2022-08-26T14:13:58.714Z,3.53
2022-08-26T14:15:00.439Z,3.73
2022-08-26T14:16:04.429Z,3.30
2022-08-26T14:17:06.789Z,3.03
2022-08-26T14:18:12.072Z,3.73
2022-08-26T14:19:14.119Z,3.07
2022-08-26T14:20:27.122Z,4.27
2022-08-26T14:21:35.054Z,3.30
2022-08-26T14:22:43.706Z,4.30
2022-08-26T14:24:00.907Z,4.33
2022-08-26T14:25:02.830Z,3.90
2022-08-26T14:26:08.288Z,3.90
2022-08-26T14:27:11.392Z,4.20
2022-08-26T14:28:13.022Z,3.93
2022-08-26T14:29:16.209Z,4.20
2022-08-26T14:30:20.450Z,4.17
2022-08-26T14:31:23.755Z,4.40
2022-08-26T14:32:28.602Z,4.83
2022-08-26T14:33:33.972Z,4.00
2022-08-26T14:34:35.562Z,4.57
2022-08-26T14:35:37.235Z,4.87
2022-08-26T14:36:39.015Z,4.57
2022-08-26T14:37:40.539Z,4.30
2022-08-26T14:38:42.070Z,4.80
2022-08-26T14:39:44.763Z,4.30
2022-08-26T14:40:46.481Z,4.63
2022-08-26T14:41:54.624Z,4.50